sensor_id;sensor_type;location;lat;lon;timestamp;pressure;altitude;pressure_sealevel;temperature;humidity
22930;BME280;11630;42.660;23.292;2022-07-15T00:01:00;69645.84;;;19.11;91.36
22930;BME280;11630;42.660;23.292;2022-07-15T00:03:29;69626.08;;;18.93;92.20
22930;BME280;11630;42.660;23.292;2022-07-15T00:06:00;69594.28;;;18.69;93.01
22930;BME280;11630;42.660;23.292;2022-07-15T00:08:31;69592.64;;;18.68;93.10
22930;BME280;11630;42.660;23.292;2022-07-15T00:11:01;69593.19;;;18.71;91.99
22930;BME280;11630;42.660;23.292;2022-07-15T00:13:32;69613.48;;;18.82;91.46
22930;BME280;11630;42.660;23.292;2022-07-15T00:16:05;69617.58;;;18.89;91.44
22930;BME280;11630;42.660;23.292;2022-07-15T00:18:37;69609.91;;;18.82;92.30
22930;BME280;11630;42.660;23.292;2022-07-15T00:21:08;69603.32;;;18.76;93.37
22930;BME280;11630;42.660;23.292;2022-07-15T00:23:39;69605.81;;;18.75;94.36
22930;BME280;11630;42.660;23.292;2022-07-15T00:26:12;69610.99;;;18.86;93.60
22930;BME280;11630;42.660;23.292;2022-07-15T00:28:44;69600.87;;;18.75;92.32
22930;BME280;11630;42.660;23.292;2022-07-15T00:31:15;69609.91;;;18.82;92.15
22930;BME280;11630;42.660;23.292;2022-07-15T00:33:46;69614.28;;;18.86;92.85
22930;BME280;11630;42.660;23.292;2022-07-15T00:36:17;69617.86;;;18.88;94.06
22930;BME280;11630;42.660;23.292;2022-07-15T00:38:48;69633.47;;;19.01;93.08
22930;BME280;11630;42.660;23.292;2022-07-15T00:41:19;69631.51;;;19.08;91.56
22930;BME280;11630;42.660;23.292;2022-07-15T00:43:50;69641.21;;;18.98;91.75
22930;BME280;11630;42.660;23.292;2022-07-15T00:46:22;69629.61;;;19.03;91.89
22930;BME280;11630;42.660;23.292;2022-07-15T00:48:52;69627.18;;;18.94;92.21
22930;BME280;11630;42.660;23.292;2022-07-15T00:51:23;69641.48;;;18.97;92.29
22930;BME280;11630;42.660;23.292;2022-07-15T00:53:54;69628.27;;;18.98;92.56
22930;BME280;11630;42.660;23.292;2022-07-15T00:56:26;69622.81;;;18.90;93.18
22930;BME280;11630;42.660;23.292;2022-07-15T00:58:59;69610.17;;;18.84;93.80
22930;BME280;11630;42.660;23.292;2022-07-15T01:01:32;69613.19;;;18.85;93.44
22930;BME280;11630;42.660;23.292;2022-07-15T01:04:04;69614.55;;;18.88;92.68
22930;BME280;11630;42.660;23.292;2022-07-15T01:06:34;69609.63;;;18.83;93.63
22930;BME280;11630;42.660;23.292;2022-07-15T01:09:05;69590.73;;;18.62;94.48
22930;BME280;11630;42.660;23.292;2022-07-15T01:11:35;69572.06;;;18.55;94.49
22930;BME280;11630;42.660;23.292;2022-07-15T01:14:07;69589.12;;;18.58;94.20
22930;BME280;11630;42.660;23.292;2022-07-15T01:16:37;69582.23;;;18.58;93.80
22930;BME280;11630;42.660;23.292;2022-07-15T01:19:07;69583.92;;;18.53;95.30
22930;BME280;11630;42.660;23.292;2022-07-15T01:21:37;69575.11;;;18.52;96.95
22930;BME280;11630;42.660;23.292;2022-07-15T01:24:08;69572.14;;;18.43;97.77
22930;BME280;11630;42.660;23.292;2022-07-15T01:26:41;69569.10;;;18.47;97.25
22930;BME280;11630;42.660;23.292;2022-07-15T01:29:11;69559.53;;;18.34;98.20
22930;BME280;11630;42.660;23.292;2022-07-15T01:31:42;69552.67;;;18.32;96.76
22930;BME280;11630;42.660;23.292;2022-07-15T01:34:14;69551.85;;;18.30;97.39
22930;BME280;11630;42.660;23.292;2022-07-15T01:36:45;69540.63;;;18.16;98.49
22930;BME280;11630;42.660;23.292;2022-07-15T01:39:16;69550.77;;;18.19;98.12
22930;BME280;11630;42.660;23.292;2022-07-15T01:41:47;69530.20;;;18.11;99.15
22930;BME280;11630;42.660;23.292;2022-07-15T01:44:17;69534.58;;;18.13;99.17
22930;BME280;11630;42.660;23.292;2022-07-15T01:46:47;69542.81;;;18.15;99.71
22930;BME280;11630;42.660;23.292;2022-07-15T01:49:21;69534.06;;;18.10;98.02
22930;BME280;11630;42.660;23.292;2022-07-15T01:51:53;69523.94;;;17.97;98.04
22930;BME280;11630;42.660;23.292;2022-07-15T01:54:25;69514.62;;;17.91;99.47
22930;BME280;11630;42.660;23.292;2022-07-15T01:56:56;69512.13;;;17.97;99.66
22930;BME280;11630;42.660;23.292;2022-07-15T01:59:27;69509.13;;;17.91;100.00
22930;BME280;11630;42.660;23.292;2022-07-15T02:01:59;69521.74;;;17.97;99.54
22930;BME280;11630;42.660;23.292;2022-07-15T02:04:30;69495.99;;;17.79;98.16
22930;BME280;11630;42.660;23.292;2022-07-15T02:07:00;69491.06;;;17.74;98.69
22930;BME280;11630;42.660;23.292;2022-07-15T02:09:31;69489.71;;;17.67;100.00
22930;BME280;11630;42.660;23.292;2022-07-15T02:12:01;69484.50;;;17.69;100.00
22930;BME280;11630;42.660;23.292;2022-07-15T02:14:32;69470.81;;;17.56;100.00
22930;BME280;11630;42.660;23.292;2022-07-15T02:17:03;69472.45;;;17.58;100.00
22930;BME280;11630;42.660;23.292;2022-07-15T02:19:35;69486.16;;;17.65;100.00
22930;BME280;11630;42.660;23.292;2022-07-15T02:22:06;69493.55;;;17.71;100.00
22930;BME280;11630;42.660;23.292;2022-07-15T02:24:37;69495.20;;;17.72;100.00
22930;BME280;11630;42.660;23.292;2022-07-15T02:27:07;69497.37;;;17.79;100.00
22930;BME280;11630;42.660;23.292;2022-07-15T02:29:38;69490.26;;;17.70;100.00
22930;BME280;11630;42.660;23.292;2022-07-15T02:32:10;69475.17;;;17.65;100.00
22930;BME280;11630;42.660;23.292;2022-07-15T02:34:41;69499.88;;;17.70;100.00
22930;BME280;11630;42.660;23.292;2022-07-15T02:37:12;69503.09;;;17.85;100.00
22930;BME280;11630;42.660;23.292;2022-07-15T02:39:42;69509.15;;;17.86;99.87
22930;BME280;11630;42.660;23.292;2022-07-15T02:42:14;69490.79;;;17.75;100.00
22930;BME280;11630;42.660;23.292;2022-07-15T02:44:45;69490.50;;;17.74;100.00
22930;BME280;11630;42.660;23.292;2022-07-15T02:47:16;69472.71;;;17.59;100.00
22930;BME280;11630;42.660;23.292;2022-07-15T02:49:46;69472.73;;;17.57;100.00
22930;BME280;11630;42.660;23.292;2022-07-15T02:52:18;69450.01;;;17.37;100.00
22930;BME280;11630;42.660;23.292;2022-07-15T02:54:49;69456.05;;;17.40;100.00
22930;BME280;11630;42.660;23.292;2022-07-15T02:57:20;69465.59;;;17.55;100.00
22930;BME280;11630;42.660;23.292;2022-07-15T02:59:50;69452.75;;;17.42;100.00
22930;BME280;11630;42.660;23.292;2022-07-15T03:02:22;69479.88;;;17.58;100.00
22930;BME280;11630;42.660;23.292;2022-07-15T03:04:52;69462.88;;;17.48;100.00
22930;BME280;11630;42.660;23.292;2022-07-15T03:07:24;69457.41;;;17.43;100.00
22930;BME280;11630;42.660;23.292;2022-07-15T03:09:55;69447.83;;;17.33;100.00
22930;BME280;11630;42.660;23.292;2022-07-15T03:12:26;69452.23;;;17.34;100.00
22930;BME280;11630;42.660;23.292;2022-07-15T03:14:57;69435.23;;;17.24;100.00
22930;BME280;11630;42.660;23.292;2022-07-15T03:17:29;69452.48;;;17.38;100.00
22930;BME280;11630;42.660;23.292;2022-07-15T03:20:01;69466.72;;;17.49;100.00
22930;BME280;11630;42.660;23.292;2022-07-15T03:22:32;69465.08;;;17.47;100.00
22930;BME280;11630;42.660;23.292;2022-07-15T03:25:03;69451.92;;;17.40;100.00
22930;BME280;11630;42.660;23.292;2022-07-15T03:27:34;69454.69;;;17.38;100.00
22930;BME280;11630;42.660;23.292;2022-07-15T03:30:07;69459.08;;;17.37;100.00
22930;BME280;11630;42.660;23.292;2022-07-15T03:32:41;69443.99;;;17.34;100.00
22930;BME280;11630;42.660;23.292;2022-07-15T03:35:12;69447.56;;;17.31;100.00
22930;BME280;11630;42.660;23.292;2022-07-15T03:37:43;69442.90;;;17.33;100.00
22930;BME280;11630;42.660;23.292;2022-07-15T03:40:14;69471.92;;;17.55;100.00
22930;BME280;11630;42.660;23.292;2022-07-15T03:42:45;69451.38;;;17.37;100.00
22930;BME280;11630;42.660;23.292;2022-07-15T03:45:16;69462.05;;;17.51;100.00
22930;BME280;11630;42.660;23.292;2022-07-15T03:47:47;69463.67;;;17.52;100.00
22930;BME280;11630;42.660;23.292;2022-07-15T03:50:18;69489.44;;;17.68;100.00
22930;BME280;11630;42.660;23.292;2022-07-15T03:52:49;69506.94;;;17.86;100.00
22930;BME280;11630;42.660;23.292;2022-07-15T03:55:19;69525.55;;;18.06;100.00
22930;BME280;11630;42.660;23.292;2022-07-15T03:57:51;69530.50;;;18.03;100.00
22930;BME280;11630;42.660;23.292;2022-07-15T04:00:22;69527.73;;;18.10;100.00
22930;BME280;11630;42.660;23.292;2022-07-15T04:02:53;69545.55;;;18.25;100.00
22930;BME280;11630;42.660;23.292;2022-07-15T04:05:24;69538.97;;;18.17;100.00
22930;BME280;11630;42.660;23.292;2022-07-15T04:07:55;69564.74;;;18.38;99.75
22930;BME280;11630;42.660;23.292;2022-07-15T04:10:26;69530.48;;;18.08;100.00
22930;BME280;11630;42.660;23.292;2022-07-15T04:12:57;69533.77;;;18.13;100.00
22930;BME280;11630;42.660;23.292;2022-07-15T04:15:27;69555.70;;;18.31;100.00
22930;BME280;11630;42.660;23.292;2022-07-15T04:17:57;69542.53;;;18.21;100.00
22930;BME280;11630;42.660;23.292;2022-07-15T04:20:28;69539.24;;;18.21;100.00
22930;BME280;11630;42.660;23.292;2022-07-15T04:22:58;69547.19;;;18.27;100.00
22930;BME280;11630;42.660;23.292;2022-07-15T04:25:31;69551.03;;;18.28;99.10
22930;BME280;11630;42.660;23.292;2022-07-15T04:28:01;69548.02;;;18.26;100.00
22930;BME280;11630;42.660;23.292;2022-07-15T04:30:31;69614.63;;;18.75;98.60
22930;BME280;11630;42.660;23.292;2022-07-15T04:33:03;69588.28;;;18.61;98.35
22930;BME280;11630;42.660;23.292;2022-07-15T04:35:34;69620.31;;;18.92;96.80
22930;BME280;11630;42.660;23.292;2022-07-15T04:38:05;69658.39;;;19.30;94.25
22930;BME280;11630;42.660;23.292;2022-07-15T04:40:36;69686.66;;;19.49;91.81
22930;BME280;11630;42.660;23.292;2022-07-15T04:43:06;69715.95;;;19.82;89.88
22930;BME280;11630;42.660;23.292;2022-07-15T04:45:37;69706.38;;;19.70;89.99
22930;BME280;11630;42.660;23.292;2022-07-15T04:48:08;69691.92;;;19.45;91.08
22930;BME280;11630;42.660;23.292;2022-07-15T04:50:55;69711.34;;;19.67;92.07
22930;BME280;11630;42.660;23.292;2022-07-15T04:53:27;69740.67;;;20.00;89.04
22930;BME280;11630;42.660;23.292;2022-07-15T04:55:57;69779.34;;;20.33;86.46
22930;BME280;11630;42.660;23.292;2022-07-15T04:58:27;69811.72;;;20.63;81.72
22930;BME280;11630;42.660;23.292;2022-07-15T05:00:58;69796.05;;;20.50;82.62
22930;BME280;11630;42.660;23.292;2022-07-15T05:03:29;69821.58;;;20.74;81.93
22930;BME280;11630;42.660;23.292;2022-07-15T05:06:00;69857.56;;;21.03;79.33
22930;BME280;11630;42.660;23.292;2022-07-15T05:08:30;69899.56;;;21.40;76.78
22930;BME280;11630;42.660;23.292;2022-07-15T05:11:01;69906.98;;;21.43;74.87
22930;BME280;11630;42.660;23.292;2022-07-15T05:13:30;69864.80;;;20.94;76.70
22930;BME280;11630;42.660;23.292;2022-07-15T05:16:04;69864.42;;;21.08;76.37
22930;BME280;11630;42.660;23.292;2022-07-15T05:18:36;69897.03;;;21.44;73.98
22930;BME280;11630;42.660;23.292;2022-07-15T05:21:07;69891.08;;;21.28;73.17
22930;BME280;11630;42.660;23.292;2022-07-15T05:23:38;69937.52;;;21.67;72.70
22930;BME280;11630;42.660;23.292;2022-07-15T05:26:09;69936.66;;;21.72;71.97
22930;BME280;11630;42.660;23.292;2022-07-15T05:28:39;69919.36;;;21.53;72.99
22930;BME280;11630;42.660;23.292;2022-07-15T05:31:10;69943.22;;;21.80;71.94
22930;BME280;11630;42.660;23.292;2022-07-15T05:33:42;69963.51;;;22.04;70.70
22930;BME280;11630;42.660;23.292;2022-07-15T05:36:13;69928.66;;;21.68;72.12
22930;BME280;11630;42.660;23.292;2022-07-15T05:38:44;69979.98;;;22.16;70.52
22930;BME280;11630;42.660;23.292;2022-07-15T05:41:15;70010.30;;;22.36;70.05
22930;BME280;11630;42.660;23.292;2022-07-15T05:43:46;69972.30;;;22.09;70.37
22930;BME280;11630;42.660;23.292;2022-07-15T05:46:18;70037.20;;;22.63;68.09
22930;BME280;11630;42.660;23.292;2022-07-15T05:48:49;70040.73;;;22.70;68.26
22930;BME280;11630;42.660;23.292;2022-07-15T05:51:20;70077.67;;;22.91;66.70
22930;BME280;11630;42.660;23.292;2022-07-15T05:53:50;70077.67;;;22.91;66.70
22930;BME280;11630;42.660;23.292;2022-07-15T05:56:22;70023.48;;;22.48;67.86
22930;BME280;11630;42.660;23.292;2022-07-15T05:58:53;70025.48;;;22.41;69.01
22930;BME280;11630;42.660;23.292;2022-07-15T06:01:23;70025.48;;;22.41;69.01
22930;BME280;11630;42.660;23.292;2022-07-15T06:03:52;70104.91;;;23.17;66.48
22930;BME280;11630;42.660;23.292;2022-07-15T06:06:23;70104.91;;;23.17;66.48
22930;BME280;11630;42.660;23.292;2022-07-15T06:08:54;70096.34;;;23.13;66.01
22930;BME280;11630;42.660;23.292;2022-07-15T06:11:25;70133.66;;;23.54;64.23
22930;BME280;11630;42.660;23.292;2022-07-15T06:13:56;70133.66;;;23.54;64.23
22930;BME280;11630;42.660;23.292;2022-07-15T06:16:27;70121.40;;;23.31;64.52
22930;BME280;11630;42.660;23.292;2022-07-15T06:18:59;70144.97;;;23.60;64.37
22930;BME280;11630;42.660;23.292;2022-07-15T06:21:30;70184.97;;;23.85;63.18
22930;BME280;11630;42.660;23.292;2022-07-15T06:24:01;70176.64;;;23.85;61.60
22930;BME280;11630;42.660;23.292;2022-07-15T06:26:32;70171.15;;;23.80;62.19
22930;BME280;11630;42.660;23.292;2022-07-15T06:29:03;70207.56;;;24.03;60.87
22930;BME280;11630;42.660;23.292;2022-07-15T06:31:34;70255.95;;;24.52;58.84
22930;BME280;11630;42.660;23.292;2022-07-15T06:34:05;70156.77;;;23.72;60.22
22930;BME280;11630;42.660;23.292;2022-07-15T06:36:35;70170.73;;;23.65;60.26
22930;BME280;11630;42.660;23.292;2022-07-15T06:39:06;70206.20;;;24.01;60.18
22930;BME280;11630;42.660;23.292;2022-07-15T06:41:37;70168.34;;;23.83;59.79
22930;BME280;11630;42.660;23.292;2022-07-15T06:44:08;70225.03;;;24.05;58.72
22930;BME280;11630;42.660;23.292;2022-07-15T06:46:39;70203.84;;;24.13;58.36
22930;BME280;11630;42.660;23.292;2022-07-15T06:49:10;70242.73;;;24.40;57.79
22930;BME280;11630;42.660;23.292;2022-07-15T06:51:43;70285.22;;;24.71;57.33
22930;BME280;11630;42.660;23.292;2022-07-15T06:54:15;70286.03;;;24.73;58.10
22930;BME280;11630;42.660;23.292;2022-07-15T06:56:46;70322.89;;;25.08;57.47
22930;BME280;11630;42.660;23.292;2022-07-15T06:59:17;70330.20;;;25.02;57.73
22930;BME280;11630;42.660;23.292;2022-07-15T07:01:47;70258.38;;;24.60;57.86
22930;BME280;11630;42.660;23.292;2022-07-15T07:04:17;70283.52;;;24.74;57.75
22930;BME280;11630;42.660;23.292;2022-07-15T07:06:47;70285.11;;;24.81;57.82
22930;BME280;11630;42.660;23.292;2022-07-15T07:09:18;70274.73;;;24.64;57.67
22930;BME280;11630;42.660;23.292;2022-07-15T07:11:48;70328.34;;;25.21;56.12
22930;BME280;11630;42.660;23.292;2022-07-15T07:14:19;70392.48;;;25.56;55.04
22930;BME280;11630;42.660;23.292;2022-07-15T07:16:49;70351.55;;;25.34;55.22
22930;BME280;11630;42.660;23.292;2022-07-15T07:19:20;70370.84;;;25.49;54.12
22930;BME280;11630;42.660;23.292;2022-07-15T07:21:50;70428.77;;;25.99;53.42
22930;BME280;11630;42.660;23.292;2022-07-15T07:24:21;70459.03;;;26.29;52.22
22930;BME280;11630;42.660;23.292;2022-07-15T07:26:52;70437.88;;;26.06;52.44
22930;BME280;11630;42.660;23.292;2022-07-15T07:29:22;70419.73;;;26.08;52.35
22930;BME280;11630;42.660;23.292;2022-07-15T07:31:53;70495.08;;;26.67;50.81
22930;BME280;11630;42.660;23.292;2022-07-15T07:34:22;70523.14;;;26.76;50.78
22930;BME280;11630;42.660;23.292;2022-07-15T07:36:55;70525.16;;;26.93;51.12
22930;BME280;11630;42.660;23.292;2022-07-15T07:39:25;70502.97;;;26.83;51.79
22930;BME280;11630;42.660;23.292;2022-07-15T07:41:57;70576.34;;;27.28;51.02
22930;BME280;11630;42.660;23.292;2022-07-15T07:44:28;70566.45;;;27.35;50.92
22930;BME280;11630;42.660;23.292;2022-07-15T07:46:58;70560.28;;;27.19;50.76
22930;BME280;11630;42.660;23.292;2022-07-15T07:49:29;70539.69;;;26.91;50.85
22930;BME280;11630;42.660;23.292;2022-07-15T07:51:59;70586.77;;;27.42;50.41
22930;BME280;11630;42.660;23.292;2022-07-15T07:54:29;70570.68;;;27.33;46.91
22930;BME280;11630;42.660;23.292;2022-07-15T07:57:00;70584.38;;;27.53;46.97
22930;BME280;11630;42.660;23.292;2022-07-15T07:59:30;70540.42;;;27.22;47.89
22930;BME280;11630;42.660;23.292;2022-07-15T08:02:00;70629.52;;;27.82;46.83
22930;BME280;11630;42.660;23.292;2022-07-15T08:04:31;70630.20;;;27.73;47.09
22930;BME280;11630;42.660;23.292;2022-07-15T08:07:02;70615.05;;;27.77;47.46
22930;BME280;11630;42.660;23.292;2022-07-15T08:09:33;70601.19;;;27.48;48.09
22930;BME280;11630;42.660;23.292;2022-07-15T08:12:05;70546.29;;;27.21;49.36
22930;BME280;11630;42.660;23.292;2022-07-15T08:14:35;70538.97;;;27.06;48.80
22930;BME280;11630;42.660;23.292;2022-07-15T08:17:05;70585.70;;;27.58;46.93
22930;BME280;11630;42.660;23.292;2022-07-15T08:19:36;70596.23;;;27.65;46.99
22930;BME280;11630;42.660;23.292;2022-07-15T08:22:05;70652.03;;;28.10;46.58
22930;BME280;11630;42.660;23.292;2022-07-15T08:24:36;70638.38;;;27.88;45.25
22930;BME280;11630;42.660;23.292;2022-07-15T08:27:07;70634.84;;;27.81;44.96
22930;BME280;11630;42.660;23.292;2022-07-15T08:29:38;70695.28;;;28.36;44.29
22930;BME280;11630;42.660;23.292;2022-07-15T08:32:10;70608.28;;;27.62;45.34
22930;BME280;11630;42.660;23.292;2022-07-15T08:34:40;70698.52;;;28.44;43.94
22930;BME280;11630;42.660;23.292;2022-07-15T08:37:11;70748.32;;;28.84;42.60
22930;BME280;11630;42.660;23.292;2022-07-15T08:39:42;70670.76;;;28.10;42.02
22930;BME280;11630;42.660;23.292;2022-07-15T08:42:14;70669.79;;;28.21;41.52
22930;BME280;11630;42.660;23.292;2022-07-15T08:44:45;70662.95;;;28.30;44.27
22930;BME280;11630;42.660;23.292;2022-07-15T08:47:16;70699.78;;;28.54;43.14
22930;BME280;11630;42.660;23.292;2022-07-15T08:49:48;70660.48;;;28.05;43.13
22930;BME280;11630;42.660;23.292;2022-07-15T08:52:19;70697.13;;;28.44;41.96
22930;BME280;11630;42.660;23.292;2022-07-15T08:54:51;70739.88;;;28.86;40.63
22930;BME280;11630;42.660;23.292;2022-07-15T08:57:22;70780.70;;;29.26;39.22
22930;BME280;11630;42.660;23.292;2022-07-15T08:59:53;70803.92;;;29.47;38.69
22930;BME280;11630;42.660;23.292;2022-07-15T09:02:24;70836.13;;;29.65;38.68
22930;BME280;11630;42.660;23.292;2022-07-15T09:05:22;70818.99;;;29.50;39.87
22930;BME280;11630;42.660;23.292;2022-07-15T09:10:55;70863.48;;;29.91;39.85
22930;BME280;11630;42.660;23.292;2022-07-15T09:13:32;70737.61;;;28.89;41.80
22930;BME280;11630;42.660;23.292;2022-07-15T09:16:03;70735.02;;;28.75;41.74
22930;BME280;11630;42.660;23.292;2022-07-15T09:18:39;70784.23;;;29.33;39.87
22930;BME280;11630;42.660;23.292;2022-07-15T09:21:24;70871.05;;;29.92;39.09
22930;BME280;11630;42.660;23.292;2022-07-15T09:23:55;70899.28;;;30.15;38.34
22930;BME280;11630;42.660;23.292;2022-07-15T09:26:31;70934.47;;;30.59;37.35
22930;BME280;11630;42.660;23.292;2022-07-15T09:29:02;70930.19;;;30.45;36.74
22930;BME280;11630;42.660;23.292;2022-07-15T09:31:39;70897.84;;;30.17;37.51
22930;BME280;11630;42.660;23.292;2022-07-15T09:34:26;70941.01;;;30.53;38.18
22930;BME280;11630;42.660;23.292;2022-07-15T09:36:57;70927.97;;;30.43;37.64
22930;BME280;11630;42.660;23.292;2022-07-15T09:39:28;70833.70;;;29.60;38.02
22930;BME280;11630;42.660;23.292;2022-07-15T09:42:04;70838.70;;;29.62;38.74
22930;BME280;11630;42.660;23.292;2022-07-15T09:44:32;70807.95;;;29.40;38.57
22930;BME280;11630;42.660;23.292;2022-07-15T09:47:03;70882.06;;;30.04;37.66
22930;BME280;11630;42.660;23.292;2022-07-15T09:49:36;70922.75;;;30.37;37.82
22930;BME280;11630;42.660;23.292;2022-07-15T09:52:11;70994.13;;;31.01;36.67
22930;BME280;11630;42.660;23.292;2022-07-15T09:54:46;71042.39;;;31.53;35.02
22930;BME280;11630;42.660;23.292;2022-07-15T09:57:18;71035.27;;;31.42;35.13
22930;BME280;11630;42.660;23.292;2022-07-15T09:59:50;71018.77;;;31.22;35.64
22930;BME280;11630;42.660;23.292;2022-07-15T10:02:22;71089.73;;;31.95;34.10
22930;BME280;11630;42.660;23.292;2022-07-15T10:04:54;71112.25;;;32.11;33.87
22930;BME280;11630;42.660;23.292;2022-07-15T10:07:27;71073.22;;;31.75;33.54
22930;BME280;11630;42.660;23.292;2022-07-15T10:09:59;71077.91;;;31.80;33.48
22930;BME280;11630;42.660;23.292;2022-07-15T10:12:32;71041.11;;;31.46;33.79
22930;BME280;11630;42.660;23.292;2022-07-15T10:23:48;71108.11;;;32.06;32.81
22930;BME280;11630;42.660;23.292;2022-07-15T10:26:38;71181.20;;;32.72;31.33
22930;BME280;11630;42.660;23.292;2022-07-15T10:29:06;71213.02;;;33.01;31.62
22930;BME280;11630;42.660;23.292;2022-07-15T10:31:40;71209.71;;;32.98;30.95
22930;BME280;11630;42.660;23.292;2022-07-15T10:34:17;71144.95;;;32.38;31.94
22930;BME280;11630;42.660;23.292;2022-07-15T10:36:54;71237.41;;;33.23;31.26
22930;BME280;11630;42.660;23.292;2022-07-15T10:39:27;71280.11;;;33.62;30.37
22930;BME280;11630;42.660;23.292;2022-07-15T10:41:58;71188.41;;;32.78;31.10
22930;BME280;11630;42.660;23.292;2022-07-15T10:44:31;71197.73;;;32.91;31.60
22930;BME280;11630;42.660;23.292;2022-07-15T10:47:19;71251.83;;;33.36;30.92
22930;BME280;11630;42.660;23.292;2022-07-15T10:49:49;71285.69;;;33.64;29.83
22930;BME280;11630;42.660;23.292;2022-07-15T10:52:24;71275.12;;;33.57;29.63
22930;BME280;11630;42.660;23.292;2022-07-15T10:55:01;71287.86;;;33.68;29.93
22930;BME280;11630;42.660;23.292;2022-07-15T11:00:32;71313.09;;;33.90;29.96
22930;BME280;11630;42.660;23.292;2022-07-15T11:03:11;71321.95;;;33.98;29.45
22930;BME280;11630;42.660;23.292;2022-07-15T11:06:02;71366.58;;;34.39;28.79
22930;BME280;11630;42.660;23.292;2022-07-15T11:13:50;71344.41;;;34.19;28.79
22930;BME280;11630;42.660;23.292;2022-07-15T11:16:21;71418.96;;;34.87;28.07
22930;BME280;11630;42.660;23.292;2022-07-15T11:18:53;71339.11;;;34.16;28.44
22930;BME280;11630;42.660;23.292;2022-07-15T11:21:24;71421.48;;;34.88;27.93
22930;BME280;11630;42.660;23.292;2022-07-15T11:23:54;71384.28;;;34.57;28.05
22930;BME280;11630;42.660;23.292;2022-07-15T11:26:44;71470.55;;;35.33;26.81
22930;BME280;11630;42.660;23.292;2022-07-15T11:28:57;71529.63;;;35.88;27.58
22930;BME280;11630;42.660;23.292;2022-07-15T11:31:29;71475.30;;;35.36;28.07
22930;BME280;11630;42.660;23.292;2022-07-15T11:34:00;71430.06;;;34.97;26.70
22930;BME280;11630;42.660;23.292;2022-07-15T11:36:32;71494.50;;;35.52;27.74
22930;BME280;11630;42.660;23.292;2022-07-15T11:39:04;71481.72;;;35.41;27.16
22930;BME280;11630;42.660;23.292;2022-07-15T11:41:34;71404.28;;;34.73;27.54
22930;BME280;11630;42.660;23.292;2022-07-15T11:44:21;71476.72;;;35.36;26.75
22930;BME280;11630;42.660;23.292;2022-07-15T11:46:59;71445.30;;;35.12;26.79
22930;BME280;11630;42.660;23.292;2022-07-15T11:49:38;71479.48;;;35.39;27.04
22930;BME280;11630;42.660;23.292;2022-07-15T11:52:11;71474.44;;;35.37;26.38
22930;BME280;11630;42.660;23.292;2022-07-15T11:54:41;71439.25;;;35.04;25.65
22930;BME280;11630;42.660;23.292;2022-07-15T11:57:12;71473.08;;;35.34;25.52
22930;BME280;11630;42.660;23.292;2022-07-15T11:59:50;71475.55;;;35.38;26.38
22930;BME280;11630;42.660;23.292;2022-07-15T12:02:25;71510.21;;;35.70;26.18
22930;BME280;11630;42.660;23.292;2022-07-15T12:05:06;71450.33;;;35.14;25.95
22930;BME280;11630;42.660;23.292;2022-07-15T12:07:46;71420.98;;;34.85;26.09
22930;BME280;11630;42.660;23.292;2022-07-15T12:10:17;71492.52;;;35.52;26.33
22930;BME280;11630;42.660;23.292;2022-07-15T12:12:55;71395.98;;;34.65;26.45
22930;BME280;11630;42.660;23.292;2022-07-15T12:15:27;71447.08;;;35.09;25.80
22930;BME280;11630;42.660;23.292;2022-07-15T12:17:57;71394.32;;;34.64;25.75
22930;BME280;11630;42.660;23.292;2022-07-15T12:20:27;71404.84;;;34.73;26.30
22930;BME280;11630;42.660;23.292;2022-07-15T12:23:11;71515.02;;;35.71;25.79
22930;BME280;11630;42.660;23.292;2022-07-15T12:25:40;71427.02;;;34.93;26.62
22930;BME280;11630;42.660;23.292;2022-07-15T12:28:11;71453.37;;;35.18;25.30
22930;BME280;11630;42.660;23.292;2022-07-15T12:30:42;71447.32;;;35.10;26.40
22930;BME280;11630;42.660;23.292;2022-07-15T12:33:18;71452.56;;;35.16;25.58
22930;BME280;11630;42.660;23.292;2022-07-15T12:35:49;71508.05;;;35.66;25.33
22930;BME280;11630;42.660;23.292;2022-07-15T12:38:29;71506.33;;;35.67;25.07
22930;BME280;11630;42.660;23.292;2022-07-15T12:41:07;71435.90;;;35.01;25.96
22930;BME280;11630;42.660;23.292;2022-07-15T12:43:54;71494.73;;;35.54;25.60
22930;BME280;11630;42.660;23.292;2022-07-15T12:49:50;71524.45;;;35.79;24.69
22930;BME280;11630;42.660;23.292;2022-07-15T12:52:25;71511.38;;;35.69;24.95
22930;BME280;11630;42.660;23.292;2022-07-15T12:54:56;71506.63;;;35.66;24.93
22930;BME280;11630;42.660;23.292;2022-07-15T12:57:35;71588.23;;;36.39;25.28
22930;BME280;11630;42.660;23.292;2022-07-15T13:00:19;71532.45;;;35.88;25.53
22930;BME280;11630;42.660;23.292;2022-07-15T13:03:02;71511.08;;;35.70;25.67
22930;BME280;11630;42.660;23.292;2022-07-15T13:05:47;71533.56;;;35.89;25.62
22930;BME280;11630;42.660;23.292;2022-07-15T13:08:16;71551.86;;;36.08;25.38
22930;BME280;11630;42.660;23.292;2022-07-15T13:10:49;71554.69;;;36.08;24.99
22930;BME280;11630;42.660;23.292;2022-07-15T13:13:22;71545.00;;;35.98;25.26
22930;BME280;11630;42.660;23.292;2022-07-15T13:15:54;71512.49;;;35.70;25.08
22930;BME280;11630;42.660;23.292;2022-07-15T13:18:24;71333.31;;;34.09;26.24
22930;BME280;11630;42.660;23.292;2022-07-15T13:20:56;71349.64;;;34.25;26.27
22930;BME280;11630;42.660;23.292;2022-07-15T13:23:27;71346.88;;;34.23;26.34
22930;BME280;11630;42.660;23.292;2022-07-15T13:25:58;71271.77;;;33.54;26.66
22930;BME280;11630;42.660;23.292;2022-07-15T13:28:27;71402.08;;;34.71;26.50
22930;BME280;11630;42.660;23.292;2022-07-15T13:30:58;71452.86;;;35.15;25.99
22930;BME280;11630;42.660;23.292;2022-07-15T13:33:29;71500.84;;;35.59;25.36
22930;BME280;11630;42.660;23.292;2022-07-15T13:36:00;71454.78;;;35.18;25.57